sensor_id;sensor_type;location;lat;lon;timestamp;P1;durP1;ratioP1;P2;durP2;ratioP2
60038;SDS011;45916;52.734;6.544;2023-09-30T00:01:20;22.40;;;11.02;;
60038;SDS011;45916;52.734;6.544;2023-09-30T00:03:47;19.50;;;10.55;;
60038;SDS011;45916;52.734;6.544;2023-09-30T00:06:13;20.58;;;11.00;;
60038;SDS011;45916;52.734;6.544;2023-09-30T00:08:38;19.17;;;10.77;;
60038;SDS011;45916;52.734;6.544;2023-09-30T00:11:06;20.83;;;10.15;;
60038;SDS011;45916;52.734;6.544;2023-09-30T00:13:32;17.38;;;9.10;;
60038;SDS011;45916;52.734;6.544;2023-09-30T00:15:58;23.73;;;11.50;;
60038;SDS011;45916;52.734;6.544;2023-09-30T00:18:23;19.98;;;10.45;;
60038;SDS011;45916;52.734;6.544;2023-09-30T00:20:50;22.75;;;9.43;;
60038;SDS011;45916;52.734;6.544;2023-09-30T00:23:15;17.25;;;9.82;;
60038;SDS011;45916;52.734;6.544;2023-09-30T00:25:41;20.23;;;10.82;;
60038;SDS011;45916;52.734;6.544;2023-09-30T00:28:07;20.35;;;10.50;;
60038;SDS011;45916;52.734;6.544;2023-09-30T00:30:33;22.05;;;10.93;;
60038;SDS011;45916;52.734;6.544;2023-09-30T00:32:59;20.83;;;11.32;;
60038;SDS011;45916;52.734;6.544;2023-09-30T00:35:25;17.75;;;9.85;;
60038;SDS011;45916;52.734;6.544;2023-09-30T00:37:50;22.08;;;10.65;;
60038;SDS011;45916;52.734;6.544;2023-09-30T00:40:16;16.40;;;10.00;;
60038;SDS011;45916;52.734;6.544;2023-09-30T00:42:42;18.88;;;9.60;;
60038;SDS011;45916;52.734;6.544;2023-09-30T00:45:07;21.23;;;10.02;;
60038;SDS011;45916;52.734;6.544;2023-09-30T00:47:37;21.30;;;9.70;;
60038;SDS011;45916;52.734;6.544;2023-09-30T00:50:06;21.55;;;9.73;;
60038;SDS011;45916;52.734;6.544;2023-09-30T00:52:33;19.33;;;9.23;;
60038;SDS011;45916;52.734;6.544;2023-09-30T00:55:01;18.70;;;9.75;;
60038;SDS011;45916;52.734;6.544;2023-09-30T00:57:31;22.48;;;10.18;;
60038;SDS011;45916;52.734;6.544;2023-09-30T00:59:57;20.60;;;9.25;;
60038;SDS011;45916;52.734;6.544;2023-09-30T01:02:23;20.02;;;9.68;;
60038;SDS011;45916;52.734;6.544;2023-09-30T01:04:49;20.33;;;9.13;;
60038;SDS011;45916;52.734;6.544;2023-09-30T01:07:15;19.60;;;9.82;;
60038;SDS011;45916;52.734;6.544;2023-09-30T01:09:41;18.80;;;9.82;;
60038;SDS011;45916;52.734;6.544;2023-09-30T01:12:07;18.92;;;9.98;;
60038;SDS011;45916;52.734;6.544;2023-09-30T01:14:33;21.52;;;10.02;;
60038;SDS011;45916;52.734;6.544;2023-09-30T01:17:00;22.73;;;9.90;;
60038;SDS011;45916;52.734;6.544;2023-09-30T01:19:26;21.67;;;9.90;;
60038;SDS011;45916;52.734;6.544;2023-09-30T01:21:58;18.23;;;9.30;;
60038;SDS011;45916;52.734;6.544;2023-09-30T01:24:28;19.55;;;10.30;;
60038;SDS011;45916;52.734;6.544;2023-09-30T01:26:54;19.85;;;9.88;;
60038;SDS011;45916;52.734;6.544;2023-09-30T01:29:20;21.27;;;10.25;;
60038;SDS011;45916;52.734;6.544;2023-09-30T01:31:47;24.75;;;10.65;;
60038;SDS011;45916;52.734;6.544;2023-09-30T01:34:14;21.90;;;10.52;;
60038;SDS011;45916;52.734;6.544;2023-09-30T01:36:41;19.65;;;10.57;;
60038;SDS011;45916;52.734;6.544;2023-09-30T01:39:08;21.70;;;10.88;;
60038;SDS011;45916;52.734;6.544;2023-09-30T01:41:35;21.17;;;11.40;;
60038;SDS011;45916;52.734;6.544;2023-09-30T01:44:02;17.75;;;9.82;;
60038;SDS011;45916;52.734;6.544;2023-09-30T01:46:28;20.77;;;10.57;;
60038;SDS011;45916;52.734;6.544;2023-09-30T01:48:54;21.38;;;10.15;;
60038;SDS011;45916;52.734;6.544;2023-09-30T01:51:20;20.65;;;10.98;;
60038;SDS011;45916;52.734;6.544;2023-09-30T01:53:47;20.25;;;9.60;;
60038;SDS011;45916;52.734;6.544;2023-09-30T01:56:13;20.58;;;9.85;;
60038;SDS011;45916;52.734;6.544;2023-09-30T01:58:39;22.80;;;11.27;;
60038;SDS011;45916;52.734;6.544;2023-09-30T02:01:04;19.85;;;9.70;;
60038;SDS011;45916;52.734;6.544;2023-09-30T02:03:30;19.88;;;9.80;;
60038;SDS011;45916;52.734;6.544;2023-09-30T02:05:56;19.20;;;10.18;;
60038;SDS011;45916;52.734;6.544;2023-09-30T02:08:23;19.83;;;9.52;;
60038;SDS011;45916;52.734;6.544;2023-09-30T02:10:49;19.98;;;10.45;;
60038;SDS011;45916;52.734;6.544;2023-09-30T02:13:16;20.27;;;9.85;;
60038;SDS011;45916;52.734;6.544;2023-09-30T02:15:42;22.33;;;10.25;;
60038;SDS011;45916;52.734;6.544;2023-09-30T02:18:09;21.05;;;10.05;;
60038;SDS011;45916;52.734;6.544;2023-09-30T02:20:35;20.45;;;10.93;;
60038;SDS011;45916;52.734;6.544;2023-09-30T02:23:05;22.20;;;10.77;;
60038;SDS011;45916;52.734;6.544;2023-09-30T02:25:31;22.42;;;10.32;;
60038;SDS011;45916;52.734;6.544;2023-09-30T02:27:58;17.58;;;10.20;;
60038;SDS011;45916;52.734;6.544;2023-09-30T02:30:24;20.83;;;10.13;;
60038;SDS011;45916;52.734;6.544;2023-09-30T02:32:49;21.10;;;10.27;;
60038;SDS011;45916;52.734;6.544;2023-09-30T02:35:15;18.50;;;10.48;;
60038;SDS011;45916;52.734;6.544;2023-09-30T02:37:41;19.70;;;10.70;;
60038;SDS011;45916;52.734;6.544;2023-09-30T02:40:07;20.65;;;11.27;;
60038;SDS011;45916;52.734;6.544;2023-09-30T02:42:39;19.95;;;11.02;;
60038;SDS011;45916;52.734;6.544;2023-09-30T02:45:05;20.40;;;11.13;;
60038;SDS011;45916;52.734;6.544;2023-09-30T02:47:33;18.35;;;11.52;;
60038;SDS011;45916;52.734;6.544;2023-09-30T02:49:59;25.63;;;11.35;;
60038;SDS011;45916;52.734;6.544;2023-09-30T02:52:26;21.90;;;10.88;;
60038;SDS011;45916;52.734;6.544;2023-09-30T02:54:54;20.03;;;11.73;;
60038;SDS011;45916;52.734;6.544;2023-09-30T02:57:20;23.55;;;11.60;;
60038;SDS011;45916;52.734;6.544;2023-09-30T02:59:46;22.48;;;12.13;;
60038;SDS011;45916;52.734;6.544;2023-09-30T03:02:12;20.77;;;11.75;;
60038;SDS011;45916;52.734;6.544;2023-09-30T03:04:38;21.15;;;11.05;;
60038;SDS011;45916;52.734;6.544;2023-09-30T03:07:05;21.92;;;10.88;;
60038;SDS011;45916;52.734;6.544;2023-09-30T03:09:30;20.70;;;10.55;;
60038;SDS011;45916;52.734;6.544;2023-09-30T03:11:56;21.77;;;11.07;;
60038;SDS011;45916;52.734;6.544;2023-09-30T03:14:24;20.20;;;11.80;;
60038;SDS011;45916;52.734;6.544;2023-09-30T03:16:50;21.17;;;12.32;;
60038;SDS011;45916;52.734;6.544;2023-09-30T03:19:16;20.55;;;11.15;;
60038;SDS011;45916;52.734;6.544;2023-09-30T03:21:41;22.00;;;10.60;;
60038;SDS011;45916;52.734;6.544;2023-09-30T03:24:07;19.70;;;12.15;;
60038;SDS011;45916;52.734;6.544;2023-09-30T03:26:33;23.17;;;11.85;;
60038;SDS011;45916;52.734;6.544;2023-09-30T03:29:00;18.77;;;10.55;;
60038;SDS011;45916;52.734;6.544;2023-09-30T03:31:26;21.80;;;11.35;;
60038;SDS011;45916;52.734;6.544;2023-09-30T03:33:52;19.92;;;11.20;;
60038;SDS011;45916;52.734;6.544;2023-09-30T03:36:22;24.83;;;11.90;;
60038;SDS011;45916;52.734;6.544;2023-09-30T03:38:51;25.38;;;13.10;;
60038;SDS011;45916;52.734;6.544;2023-09-30T03:41:20;23.20;;;11.75;;
60038;SDS011;45916;52.734;6.544;2023-09-30T03:43:46;25.10;;;11.57;;
60038;SDS011;45916;52.734;6.544;2023-09-30T03:46:14;20.63;;;12.02;;
60038;SDS011;45916;52.734;6.544;2023-09-30T03:48:40;17.00;;;10.93;;
60038;SDS011;45916;52.734;6.544;2023-09-30T03:51:14;19.75;;;11.20;;
60038;SDS011;45916;52.734;6.544;2023-09-30T03:53:41;21.63;;;11.82;;
60038;SDS011;45916;52.734;6.544;2023-09-30T03:56:07;23.27;;;12.40;;
60038;SDS011;45916;52.734;6.544;2023-09-30T03:58:33;24.45;;;12.75;;
60038;SDS011;45916;52.734;6.544;2023-09-30T04:00:59;20.90;;;11.00;;
60038;SDS011;45916;52.734;6.544;2023-09-30T04:03:29;17.58;;;11.07;;
60038;SDS011;45916;52.734;6.544;2023-09-30T04:05:55;24.45;;;12.60;;
60038;SDS011;45916;52.734;6.544;2023-09-30T04:08:21;21.75;;;12.13;;
60038;SDS011;45916;52.734;6.544;2023-09-30T04:10:47;21.67;;;12.18;;
60038;SDS011;45916;52.734;6.544;2023-09-30T04:13:14;23.15;;;13.15;;
60038;SDS011;45916;52.734;6.544;2023-09-30T04:15:39;22.55;;;13.27;;
60038;SDS011;45916;52.734;6.544;2023-09-30T04:18:05;20.25;;;12.35;;
60038;SDS011;45916;52.734;6.544;2023-09-30T04:20:31;20.27;;;11.98;;
60038;SDS011;45916;52.734;6.544;2023-09-30T04:22:57;22.55;;;13.23;;
60038;SDS011;45916;52.734;6.544;2023-09-30T04:25:23;20.75;;;12.85;;
60038;SDS011;45916;52.734;6.544;2023-09-30T04:27:52;21.88;;;12.45;;
60038;SDS011;45916;52.734;6.544;2023-09-30T04:30:18;23.95;;;12.32;;
60038;SDS011;45916;52.734;6.544;2023-09-30T04:32:44;22.27;;;13.40;;
60038;SDS011;45916;52.734;6.544;2023-09-30T04:35:10;21.60;;;12.90;;
60038;SDS011;45916;52.734;6.544;2023-09-30T04:37:36;19.33;;;12.40;;
60038;SDS011;45916;52.734;6.544;2023-09-30T04:40:07;25.15;;;14.07;;
60038;SDS011;45916;52.734;6.544;2023-09-30T04:42:45;24.38;;;14.45;;
60038;SDS011;45916;52.734;6.544;2023-09-30T04:45:12;22.02;;;15.52;;
60038;SDS011;45916;52.734;6.544;2023-09-30T04:47:38;24.33;;;15.13;;
60038;SDS011;45916;52.734;6.544;2023-09-30T04:50:07;23.65;;;14.88;;
60038;SDS011;45916;52.734;6.544;2023-09-30T04:52:36;23.73;;;13.90;;
60038;SDS011;45916;52.734;6.544;2023-09-30T04:55:04;24.85;;;15.27;;
60038;SDS011;45916;52.734;6.544;2023-09-30T04:57:30;23.70;;;15.02;;
60038;SDS011;45916;52.734;6.544;2023-09-30T04:59:57;23.60;;;15.38;;
60038;SDS011;45916;52.734;6.544;2023-09-30T05:02:23;27.73;;;15.82;;
60038;SDS011;45916;52.734;6.544;2023-09-30T05:04:50;25.17;;;15.88;;
60038;SDS011;45916;52.734;6.544;2023-09-30T05:07:15;25.77;;;16.27;;
60038;SDS011;45916;52.734;6.544;2023-09-30T05:09:41;23.30;;;16.08;;
60038;SDS011;45916;52.734;6.544;2023-09-30T05:12:07;26.73;;;15.95;;
60038;SDS011;45916;52.734;6.544;2023-09-30T05:14:33;25.45;;;16.20;;
60038;SDS011;45916;52.734;6.544;2023-09-30T05:17:00;24.73;;;15.77;;
60038;SDS011;45916;52.734;6.544;2023-09-30T05:19:26;21.35;;;16.33;;
60038;SDS011;45916;52.734;6.544;2023-09-30T05:21:52;21.13;;;16.15;;
60038;SDS011;45916;52.734;6.544;2023-09-30T05:24:17;26.30;;;16.05;;
60038;SDS011;45916;52.734;6.544;2023-09-30T05:26:44;23.42;;;16.92;;
60038;SDS011;45916;52.734;6.544;2023-09-30T05:29:10;24.60;;;15.50;;
60038;SDS011;45916;52.734;6.544;2023-09-30T05:31:36;25.77;;;17.23;;
60038;SDS011;45916;52.734;6.544;2023-09-30T05:34:02;25.33;;;16.90;;
60038;SDS011;45916;52.734;6.544;2023-09-30T05:36:27;23.63;;;16.30;;
60038;SDS011;45916;52.734;6.544;2023-09-30T05:38:54;20.13;;;14.38;;
60038;SDS011;45916;52.734;6.544;2023-09-30T05:43:49;20.63;;;14.30;;
60038;SDS011;45916;52.734;6.544;2023-09-30T05:46:15;25.52;;;17.17;;
60038;SDS011;45916;52.734;6.544;2023-09-30T05:48:41;27.92;;;17.65;;
60038;SDS011;45916;52.734;6.544;2023-09-30T05:51:07;26.98;;;18.52;;
60038;SDS011;45916;52.734;6.544;2023-09-30T05:53:33;29.70;;;18.38;;
60038;SDS011;45916;52.734;6.544;2023-09-30T05:55:59;28.17;;;17.83;;
60038;SDS011;45916;52.734;6.544;2023-09-30T05:58:25;26.75;;;19.48;;
60038;SDS011;45916;52.734;6.544;2023-09-30T06:00:51;25.75;;;18.23;;
60038;SDS011;45916;52.734;6.544;2023-09-30T06:03:18;23.58;;;17.63;;
60038;SDS011;45916;52.734;6.544;2023-09-30T06:05:46;28.98;;;19.55;;
60038;SDS011;45916;52.734;6.544;2023-09-30T06:08:12;28.00;;;20.45;;
60038;SDS011;45916;52.734;6.544;2023-09-30T06:10:39;36.08;;;22.80;;
60038;SDS011;45916;52.734;6.544;2023-09-30T06:13:09;33.13;;;23.60;;
60038;SDS011;45916;52.734;6.544;2023-09-30T06:15:41;32.88;;;21.58;;
60038;SDS011;45916;52.734;6.544;2023-09-30T06:18:08;25.05;;;19.80;;
60038;SDS011;45916;52.734;6.544;2023-09-30T06:20:37;21.30;;;16.10;;
60038;SDS011;45916;52.734;6.544;2023-09-30T06:23:03;24.45;;;17.95;;
60038;SDS011;45916;52.734;6.544;2023-09-30T06:25:28;18.73;;;15.52;;
60038;SDS011;45916;52.734;6.544;2023-09-30T06:27:55;23.95;;;16.70;;
60038;SDS011;45916;52.734;6.544;2023-09-30T06:30:21;21.08;;;14.60;;
60038;SDS011;45916;52.734;6.544;2023-09-30T06:32:54;17.85;;;11.63;;
60038;SDS011;45916;52.734;6.544;2023-09-30T06:35:27;17.10;;;11.38;;
60038;SDS011;45916;52.734;6.544;2023-09-30T06:40:20;16.27;;;10.20;;
60038;SDS011;45916;52.734;6.544;2023-09-30T06:42:47;14.82;;;10.18;;
60038;SDS011;45916;52.734;6.544;2023-09-30T06:45:12;14.23;;;9.45;;
60038;SDS011;45916;52.734;6.544;2023-09-30T06:47:39;15.48;;;9.50;;
60038;SDS011;45916;52.734;6.544;2023-09-30T06:50:10;15.32;;;9.68;;
60038;SDS011;45916;52.734;6.544;2023-09-30T06:52:41;13.70;;;9.52;;
60038;SDS011;45916;52.734;6.544;2023-09-30T06:55:07;14.15;;;9.15;;
60038;SDS011;45916;52.734;6.544;2023-09-30T06:57:34;13.13;;;9.45;;
60038;SDS011;45916;52.734;6.544;2023-09-30T07:00:08;12.00;;;9.63;;
60038;SDS011;45916;52.734;6.544;2023-09-30T07:02:35;15.20;;;8.95;;
60038;SDS011;45916;52.734;6.544;2023-09-30T07:05:02;12.55;;;9.15;;
60038;SDS011;45916;52.734;6.544;2023-09-30T07:07:34;11.52;;;9.07;;
60038;SDS011;45916;52.734;6.544;2023-09-30T07:09:59;12.13;;;8.18;;
60038;SDS011;45916;52.734;6.544;2023-09-30T07:12:25;12.20;;;9.32;;
60038;SDS011;45916;52.734;6.544;2023-09-30T07:14:51;13.57;;;9.05;;
60038;SDS011;45916;52.734;6.544;2023-09-30T07:17:17;14.23;;;9.13;;
60038;SDS011;45916;52.734;6.544;2023-09-30T07:19:43;13.30;;;9.13;;
60038;SDS011;45916;52.734;6.544;2023-09-30T07:22:09;15.13;;;9.85;;
60038;SDS011;45916;52.734;6.544;2023-09-30T07:24:34;13.98;;;9.35;;
60038;SDS011;45916;52.734;6.544;2023-09-30T07:27:00;14.35;;;9.60;;
60038;SDS011;45916;52.734;6.544;2023-09-30T07:29:26;14.38;;;9.38;;
60038;SDS011;45916;52.734;6.544;2023-09-30T07:31:51;14.10;;;7.93;;
60038;SDS011;45916;52.734;6.544;2023-09-30T07:34:17;14.48;;;8.70;;
60038;SDS011;45916;52.734;6.544;2023-09-30T07:36:43;11.60;;;8.85;;
60038;SDS011;45916;52.734;6.544;2023-09-30T07:39:08;12.73;;;9.13;;
60038;SDS011;45916;52.734;6.544;2023-09-30T07:41:34;12.30;;;8.35;;
60038;SDS011;45916;52.734;6.544;2023-09-30T07:44:01;11.57;;;8.93;;
60038;SDS011;45916;52.734;6.544;2023-09-30T07:46:28;12.38;;;8.68;;
60038;SDS011;45916;52.734;6.544;2023-09-30T07:48:53;13.23;;;8.15;;
60038;SDS011;45916;52.734;6.544;2023-09-30T07:51:20;14.00;;;9.25;;
60038;SDS011;45916;52.734;6.544;2023-09-30T07:53:46;13.43;;;9.20;;
60038;SDS011;45916;52.734;6.544;2023-09-30T07:56:12;12.82;;;8.73;;
60038;SDS011;45916;52.734;6.544;2023-09-30T07:58:39;11.80;;;8.63;;
60038;SDS011;45916;52.734;6.544;2023-09-30T08:01:05;12.13;;;8.80;;
60038;SDS011;45916;52.734;6.544;2023-09-30T08:03:33;14.95;;;9.65;;
60038;SDS011;45916;52.734;6.544;2023-09-30T08:06:00;12.13;;;8.70;;
60038;SDS011;45916;52.734;6.544;2023-09-30T08:08:28;12.98;;;9.02;;
60038;SDS011;45916;52.734;6.544;2023-09-30T08:10:54;12.63;;;8.50;;
60038;SDS011;45916;52.734;6.544;2023-09-30T08:13:21;14.07;;;8.65;;
60038;SDS011;45916;52.734;6.544;2023-09-30T08:15:48;13.90;;;9.18;;
60038;SDS011;45916;52.734;6.544;2023-09-30T08:18:15;14.80;;;9.00;;
60038;SDS011;45916;52.734;6.544;2023-09-30T08:20:40;12.40;;;8.65;;
60038;SDS011;45916;52.734;6.544;2023-09-30T08:23:06;12.85;;;8.68;;
60038;SDS011;45916;52.734;6.544;2023-09-30T08:25:32;14.18;;;9.60;;
60038;SDS011;45916;52.734;6.544;2023-09-30T08:27:57;15.55;;;10.93;;
60038;SDS011;45916;52.734;6.544;2023-09-30T08:30:23;15.80;;;10.10;;
60038;SDS011;45916;52.734;6.544;2023-09-30T08:32:49;12.70;;;10.10;;
60038;SDS011;45916;52.734;6.544;2023-09-30T08:35:15;12.52;;;10.40;;
60038;SDS011;45916;52.734;6.544;2023-09-30T08:37:40;16.08;;;9.70;;
60038;SDS011;45916;52.734;6.544;2023-09-30T08:40:06;13.20;;;9.77;;
60038;SDS011;45916;52.734;6.544;2023-09-30T08:42:35;13.55;;;9.63;;
60038;SDS011;45916;52.734;6.544;2023-09-30T08:45:01;13.85;;;9.82;;
60038;SDS011;45916;52.734;6.544;2023-09-30T08:47:29;13.63;;;11.05;;
60038;SDS011;45916;52.734;6.544;2023-09-30T08:49:54;12.63;;;9.68;;
60038;SDS011;45916;52.734;6.544;2023-09-30T08:52:30;11.88;;;9.25;;
60038;SDS011;45916;52.734;6.544;2023-09-30T08:54:58;14.88;;;9.23;;
60038;SDS011;45916;52.734;6.544;2023-09-30T08:57:24;12.63;;;9.60;;
60038;SDS011;45916;52.734;6.544;2023-09-30T08:59:52;12.85;;;8.80;;
60038;SDS011;45916;52.734;6.544;2023-09-30T09:02:18;13.80;;;9.32;;
60038;SDS011;45916;52.734;6.544;2023-09-30T09:04:45;11.90;;;8.50;;
60038;SDS011;45916;52.734;6.544;2023-09-30T09:07:11;11.55;;;8.48;;
60038;SDS011;45916;52.734;6.544;2023-09-30T09:09:37;12.63;;;8.93;;
60038;SDS011;45916;52.734;6.544;2023-09-30T09:12:03;13.35;;;8.57;;
60038;SDS011;45916;52.734;6.544;2023-09-30T09:14:38;11.63;;;8.25;;
60038;SDS011;45916;52.734;6.544;2023-09-30T09:17:06;9.82;;;7.97;;
60038;SDS011;45916;52.734;6.544;2023-09-30T09:19:33;12.18;;;8.45;;
60038;SDS011;45916;52.734;6.544;2023-09-30T09:22:01;38.83;;;11.38;;
60038;SDS011;45916;52.734;6.544;2023-09-30T09:24:33;40.05;;;11.50;;
60038;SDS011;45916;52.734;6.544;2023-09-30T09:27:07;13.00;;;7.82;;
60038;SDS011;45916;52.734;6.544;2023-09-30T09:29:34;12.50;;;8.60;;
60038;SDS011;45916;52.734;6.544;2023-09-30T09:32:22;12.80;;;8.93;;
60038;SDS011;45916;52.734;6.544;2023-09-30T09:35:01;12.70;;;9.65;;
60038;SDS011;45916;52.734;6.544;2023-09-30T09:37:28;21.70;;;10.68;;
60038;SDS011;45916;52.734;6.544;2023-09-30T09:39:57;18.15;;;10.13;;
60038;SDS011;45916;52.734;6.544;2023-09-30T09:42:24;20.88;;;9.35;;
60038;SDS011;45916;52.734;6.544;2023-09-30T09:47:19;12.10;;;7.90;;
60038;SDS011;45916;52.734;6.544;2023-09-30T09:49:46;10.80;;;8.38;;
60038;SDS011;45916;52.734;6.544;2023-09-30T09:52:13;12.97;;;7.60;;
60038;SDS011;45916;52.734;6.544;2023-09-30T09:54:41;9.63;;;6.70;;
60038;SDS011;45916;52.734;6.544;2023-09-30T09:57:10;9.85;;;6.65;;
60038;SDS011;45916;52.734;6.544;2023-09-30T09:59:36;11.88;;;7.53;;
60038;SDS011;45916;52.734;6.544;2023-09-30T10:02:07;11.00;;;6.97;;
60038;SDS011;45916;52.734;6.544;2023-09-30T10:04:36;11.25;;;7.78;;
60038;SDS011;45916;52.734;6.544;2023-09-30T10:07:03;11.15;;;8.32;;
60038;SDS011;45916;52.734;6.544;2023-09-30T10:09:30;12.48;;;9.13;;
60038;SDS011;45916;52.734;6.544;2023-09-30T10:12:00;13.52;;;8.20;;
60038;SDS011;45916;52.734;6.544;2023-09-30T10:14:33;11.00;;;6.68;;
60038;SDS011;45916;52.734;6.544;2023-09-30T10:17:00;9.15;;;6.97;;
60038;SDS011;45916;52.734;6.544;2023-09-30T10:19:26;10.00;;;7.57;;
60038;SDS011;45916;52.734;6.544;2023-09-30T10:22:39;9.82;;;6.80;;
60038;SDS011;45916;52.734;6.544;2023-09-30T10:24:44;9.73;;;5.93;;
60038;SDS011;45916;52.734;6.544;2023-09-30T10:40:50;9.10;;;3.88;;
60038;SDS011;45916;52.734;6.544;2023-09-30T10:43:35;11.07;;;4.43;;
60038;SDS011;45916;52.734;6.544;2023-09-30T10:46:03;9.77;;;3.90;;
60038;SDS011;45916;52.734;6.544;2023-09-30T10:48:48;9.57;;;3.97;;
60038;SDS011;45916;52.734;6.544;2023-09-30T10:51:15;9.10;;;4.32;;
60038;SDS011;45916;52.734;6.544;2023-09-30T10:53:44;9.65;;;4.25;;
60038;SDS011;45916;52.734;6.544;2023-09-30T10:56:14;7.78;;;3.22;;
60038;SDS011;45916;52.734;6.544;2023-09-30T11:01:15;8.80;;;2.97;;
60038;SDS011;45916;52.734;6.544;2023-09-30T11:03:43;8.18;;;2.95;;
60038;SDS011;45916;52.734;6.544;2023-09-30T11:06:12;6.97;;;2.63;;
60038;SDS011;45916;52.734;6.544;2023-09-30T11:08:44;7.55;;;2.70;;
60038;SDS011;45916;52.734;6.544;2023-09-30T11:11:12;8.25;;;2.38;;
60038;SDS011;45916;52.734;6.544;2023-09-30T11:13:39;8.07;;;2.75;;
60038;SDS011;45916;52.734;6.544;2023-09-30T11:16:05;8.30;;;2.83;;
60038;SDS011;45916;52.734;6.544;2023-09-30T11:18:31;8.23;;;2.25;;
60038;SDS011;45916;52.734;6.544;2023-09-30T11:21:04;10.00;;;2.83;;
60038;SDS011;45916;52.734;6.544;2023-09-30T11:23:31;5.93;;;2.15;;
60038;SDS011;45916;52.734;6.544;2023-09-30T11:25:58;6.68;;;2.10;;
60038;SDS011;45916;52.734;6.544;2023-09-30T11:28:24;8.75;;;2.38;;
60038;SDS011;45916;52.734;6.544;2023-09-30T11:33:27;8.93;;;2.78;;
60038;SDS011;45916;52.734;6.544;2023-09-30T11:38:27;8.15;;;2.72;;
60038;SDS011;45916;52.734;6.544;2023-09-30T11:41:03;8.77;;;2.37;;
60038;SDS011;45916;52.734;6.544;2023-09-30T11:43:31;8.48;;;2.75;;
60038;SDS011;45916;52.734;6.544;2023-09-30T11:46:05;8.82;;;2.17;;
60038;SDS011;45916;52.734;6.544;2023-09-30T11:48:31;8.77;;;2.60;;
60038;SDS011;45916;52.734;6.544;2023-09-30T11:50:58;7.75;;;2.38;;
60038;SDS011;45916;52.734;6.544;2023-09-30T11:53:26;7.68;;;2.80;;
60038;SDS011;45916;52.734;6.544;2023-09-30T11:55:53;9.75;;;2.80;;
60038;SDS011;45916;52.734;6.544;2023-09-30T11:58:21;6.50;;;2.00;;
60038;SDS011;45916;52.734;6.544;2023-09-30T12:00:47;7.55;;;1.67;;
60038;SDS011;45916;52.734;6.544;2023-09-30T12:03:16;6.85;;;2.25;;
60038;SDS011;45916;52.734;6.544;2023-09-30T12:05:41;6.57;;;2.05;;
60038;SDS011;45916;52.734;6.544;2023-09-30T12:08:08;6.80;;;1.95;;
60038;SDS011;45916;52.734;6.544;2023-09-30T12:10:33;6.90;;;2.20;;
60038;SDS011;45916;52.734;6.544;2023-09-30T12:12:59;6.93;;;1.70;;
60038;SDS011;45916;52.734;6.544;2023-09-30T12:15:25;6.43;;;2.13;;
60038;SDS011;45916;52.734;6.544;2023-09-30T12:17:52;6.55;;;2.42;;
60038;SDS011;45916;52.734;6.544;2023-09-30T12:20:17;9.73;;;2.15;;
60038;SDS011;45916;52.734;6.544;2023-09-30T12:22:43;6.65;;;2.25;;
60038;SDS011;45916;52.734;6.544;2023-09-30T12:25:08;6.10;;;1.75;;
60038;SDS011;45916;52.734;6.544;2023-09-30T12:27:34;5.32;;;1.80;;
60038;SDS011;45916;52.734;6.544;2023-09-30T12:30:00;7.25;;;2.42;;
60038;SDS011;45916;52.734;6.544;2023-09-30T12:32:25;8.15;;;1.92;;
60038;SDS011;45916;52.734;6.544;2023-09-30T12:34:52;6.43;;;2.10;;
60038;SDS011;45916;52.734;6.544;2023-09-30T12:37:18;7.20;;;2.03;;
60038;SDS011;45916;52.734;6.544;2023-09-30T12:39:44;8.00;;;2.08;;
60038;SDS011;45916;52.734;6.544;2023-09-30T12:42:10;11.38;;;2.65;;
60038;SDS011;45916;52.734;6.544;2023-09-30T12:44:37;7.30;;;2.78;;
60038;SDS011;45916;52.734;6.544;2023-09-30T12:47:04;9.95;;;2.53;;
60038;SDS011;45916;52.734;6.544;2023-09-30T12:49:30;8.10;;;2.50;;
60038;SDS011;45916;52.734;6.544;2023-09-30T12:51:56;7.43;;;2.70;;
60038;SDS011;45916;52.734;6.544;2023-09-30T12:54:24;7.17;;;2.20;;
60038;SDS011;45916;52.734;6.544;2023-09-30T12:56:50;9.38;;;2.58;;
60038;SDS011;45916;52.734;6.544;2023-09-30T12:59:16;7.28;;;2.35;;
60038;SDS011;45916;52.734;6.544;2023-09-30T13:01:49;8.00;;;2.90;;
60038;SDS011;45916;52.734;6.544;2023-09-30T13:04:15;8.40;;;2.50;;
60038;SDS011;45916;52.734;6.544;2023-09-30T13:06:41;7.35;;;2.13;;
60038;SDS011;45916;52.734;6.544;2023-09-30T13:09:06;7.05;;;2.38;;
60038;SDS011;45916;52.734;6.544;2023-09-30T13:11:34;8.35;;;2.50;;
60038;SDS011;45916;52.734;6.544;2023-09-30T13:13:59;11.43;;;3.17;;
60038;SDS011;45916;52.734;6.544;2023-09-30T13:16:25;8.43;;;2.60;;
60038;SDS011;45916;52.734;6.544;2023-09-30T13:18:51;7.13;;;2.33;;
60038;SDS011;45916;52.734;6.544;2023-09-30T13:21:19;7.95;;;2.38;;
60038;SDS011;45916;52.734;6.544;2023-09-30T13:23:45;8.50;;;2.58;;
60038;SDS011;45916;52.734;6.544;2023-09-30T13:26:11;7.88;;;2.53;;
60038;SDS011;45916;52.734;6.544;2023-09-30T13:28:36;7.75;;;2.65;;
60038;SDS011;45916;52.734;6.544;2023-09-30T13:31:02;8.55;;;2.17;;
60038;SDS011;45916;52.734;6.544;2023-09-30T13:33:29;7.65;;;2.50;;
60038;SDS011;45916;52.734;6.544;2023-09-30T13:35:55;7.80;;;2.55;;
60038;SDS011;45916;52.734;6.544;2023-09-30T13:38:20;6.55;;;2.92;;
60038;SDS011;45916;52.734;6.544;2023-09-30T13:40:46;6.65;;;2.20;;
60038;SDS011;45916;52.734;6.544;2023-09-30T13:43:12;7.13;;;2.08;;
60038;SDS011;45916;52.734;6.544;2023-09-30T13:45:38;7.57;;;2.72;;
60038;SDS011;45916;52.734;6.544;2023-09-30T13:48:04;8.63;;;2.55;;
60038;SDS011;45916;52.734;6.544;2023-09-30T13:50:30;8.13;;;2.33;;
60038;SDS011;45916;52.734;6.544;2023-09-30T13:52:55;6.03;;;2.30;;
60038;SDS011;45916;52.734;6.544;2023-09-30T13:55:22;8.23;;;2.92;;
60038;SDS011;45916;52.734;6.544;2023-09-30T13:57:48;8.32;;;3.05;;
60038;SDS011;45916;52.734;6.544;2023-09-30T14:00:14;10.18;;;2.75;;
60038;SDS011;45916;52.734;6.544;2023-09-30T14:02:41;9.93;;;3.83;;
60038;SDS011;45916;52.734;6.544;2023-09-30T14:05:08;8.27;;;2.70;;
60038;SDS011;45916;52.734;6.544;2023-09-30T14:07:37;7.47;;;2.55;;
60038;SDS011;45916;52.734;6.544;2023-09-30T14:10:05;7.97;;;2.85;;
60038;SDS011;45916;52.734;6.544;2023-09-30T14:12:32;7.38;;;2.63;;
60038;SDS011;45916;52.734;6.544;2023-09-30T14:14:57;8.13;;;2.92;;
60038;SDS011;45916;52.734;6.544;2023-09-30T14:17:23;7.45;;;3.10;;
60038;SDS011;45916;52.734;6.544;2023-09-30T14:19:50;10.23;;;3.45;;
60038;SDS011;45916;52.734;6.544;2023-09-30T14:22:16;7.35;;;2.40;;
60038;SDS011;45916;52.734;6.544;2023-09-30T14:24:42;9.88;;;2.72;;
60038;SDS011;45916;52.734;6.544;2023-09-30T14:27:08;7.03;;;2.10;;
60038;SDS011;45916;52.734;6.544;2023-09-30T14:29:33;8.35;;;2.50;;
60038;SDS011;45916;52.734;6.544;2023-09-30T14:31:59;7.70;;;2.42;;
60038;SDS011;45916;52.734;6.544;2023-09-30T14:34:25;7.38;;;2.10;;
60038;SDS011;45916;52.734;6.544;2023-09-30T14:36:51;9.43;;;2.38;;
60038;SDS011;45916;52.734;6.544;2023-09-30T14:39:17;7.00;;;2.72;;
60038;SDS011;45916;52.734;6.544;2023-09-30T14:41:44;9.73;;;2.42;;
60038;SDS011;45916;52.734;6.544;2023-09-30T14:44:10;8.65;;;2.95;;
60038;SDS011;45916;52.734;6.544;2023-09-30T14:46:37;6.53;;;2.70;;
60038;SDS011;45916;52.734;6.544;2023-09-30T14:49:06;8.05;;;2.80;;
60038;SDS011;45916;52.734;6.544;2023-09-30T14:51:32;7.55;;;2.13;;
60038;SDS011;45916;52.734;6.544;2023-09-30T14:54:02;9.07;;;2.55;;
60038;SDS011;45916;52.734;6.544;2023-09-30T14:56:28;8.47;;;2.80;;
60038;SDS011;45916;52.734;6.544;2023-09-30T14:58:54;8.35;;;2.30;;
60038;SDS011;45916;52.734;6.544;2023-09-30T15:01:20;7.32;;;2.58;;